createdAt,value
2022-10-23T00:01:28.354Z,0.28
2022-10-23T00:03:59.198Z,0.57
2022-10-23T00:06:28.560Z,0.77
2022-10-23T00:08:56.474Z,0.70
2022-10-23T00:11:28.558Z,0.40
2022-10-23T00:13:59.176Z,0.20
2022-10-23T00:16:27.941Z,0.20
2022-10-23T00:18:56.552Z,0.30
2022-10-23T00:21:24.939Z,0.30
2022-10-23T00:23:52.915Z,0.20
2022-10-23T00:26:20.767Z,0.43
2022-10-23T00:28:51.414Z,0.40
2022-10-23T00:31:20.188Z,0.30
2022-10-23T00:33:48.770Z,0.20
2022-10-23T00:36:18.815Z,0.65
2022-10-23T00:38:47.569Z,0.30
2022-10-23T00:41:24.616Z,0.52
2022-10-23T00:44:04.466Z,0.28
2022-10-23T00:46:32.773Z,0.20
2022-10-23T00:49:02.401Z,0.47
2022-10-23T00:51:38.962Z,0.52
2022-10-23T00:54:25.049Z,0.30
2022-10-23T00:56:57.197Z,0.32
2022-10-23T00:59:25.363Z,0.30
2022-10-23T01:01:53.078Z,0.43
2022-10-23T01:04:21.573Z,0.30
2022-10-23T01:07:27.806Z,0.10
2022-10-23T01:10:03.518Z,0.40
2022-10-23T01:12:59.774Z,0.30
2022-10-23T01:15:46.127Z,0.38
2022-10-23T01:18:39.697Z,0.40
2022-10-23T01:21:28.802Z,0.38
2022-10-23T01:24:06.528Z,0.20
2022-10-23T01:27:00.455Z,0.20
2022-10-23T01:29:45.823Z,0.20
2022-10-23T01:32:30.460Z,0.43
2022-10-23T01:35:13.068Z,0.38
2022-10-23T01:37:49.993Z,0.50
2022-10-23T01:40:22.961Z,0.32
2022-10-23T01:42:55.681Z,0.32
2022-10-23T01:45:40.566Z,0.20
2022-10-23T01:48:12.225Z,0.40
2022-10-23T01:50:42.772Z,0.43
2022-10-23T01:53:10.549Z,0.40
2022-10-23T01:58:21.216Z,0.50
2022-10-23T02:00:52.909Z,0.35
2022-10-23T02:03:21.694Z,0.30
2022-10-23T02:05:49.553Z,0.40
2022-10-23T02:08:17.264Z,0.47
2022-10-23T02:10:58.638Z,0.55
2022-10-23T02:13:34.135Z,0.43
2022-10-23T02:16:12.284Z,0.30
2022-10-23T02:18:57.779Z,0.22
2022-10-23T02:21:39.071Z,0.40
2022-10-23T02:24:11.644Z,0.52
2022-10-23T02:26:55.478Z,0.35
2022-10-23T02:29:30.323Z,0.40
2022-10-23T02:32:00.699Z,0.30
2022-10-23T02:34:28.524Z,0.90
2022-10-23T02:36:56.974Z,0.30
2022-10-23T02:39:27.667Z,0.13
2022-10-23T02:42:05.473Z,0.20
2022-10-23T02:44:38.989Z,0.50
2022-10-23T02:47:18.426Z,0.50
2022-10-23T02:50:01.634Z,0.43
2022-10-23T02:52:42.833Z,0.30
2022-10-23T02:55:34.086Z,0.30
2022-10-23T02:58:20.665Z,0.68
2022-10-23T03:00:55.394Z,0.30
2022-10-23T03:03:30.151Z,0.50
2022-10-23T03:05:59.225Z,0.10
2022-10-23T03:08:27.065Z,0.10
2022-10-23T03:10:54.714Z,0.15
2022-10-23T03:13:24.223Z,0.40
2022-10-23T03:15:53.180Z,0.15
2022-10-23T03:18:20.809Z,0.50
2022-10-23T03:20:51.111Z,0.40
2022-10-23T03:23:22.589Z,0.20
2022-10-23T03:25:50.536Z,0.40
2022-10-23T03:28:31.973Z,0.22
2022-10-23T03:31:02.245Z,0.20
2022-10-23T03:33:31.019Z,0.25
2022-10-23T03:36:06.944Z,0.30
2022-10-23T03:38:36.069Z,0.40
2022-10-23T03:41:04.868Z,0.30
2022-10-23T03:43:32.424Z,0.20
2022-10-23T03:46:01.157Z,0.43
2022-10-23T03:48:28.863Z,0.38
2022-10-23T03:50:59.376Z,0.65
2022-10-23T03:53:26.907Z,0.90
2022-10-23T03:55:54.526Z,0.70
2022-10-23T03:58:22.316Z,0.40
2022-10-23T04:00:49.973Z,0.35
2022-10-23T04:03:17.666Z,0.30
2022-10-23T04:05:45.276Z,0.75
2022-10-23T04:08:16.382Z,0.30
2022-10-23T04:10:50.707Z,0.50
2022-10-23T04:13:21.507Z,0.70
2022-10-23T04:15:50.630Z,0.35
2022-10-23T04:18:18.712Z,0.20
2022-10-23T04:20:49.443Z,0.25
2022-10-23T04:23:18.214Z,0.30
2022-10-23T04:28:16.039Z,0.30
2022-10-23T04:30:43.719Z,0.30
2022-10-23T04:33:13.212Z,0.20
2022-10-23T04:35:43.448Z,0.35
2022-10-23T04:38:12.236Z,0.35
2022-10-23T04:40:40.211Z,0.28
2022-10-23T04:43:07.778Z,0.43
2022-10-23T04:45:38.644Z,0.40
2022-10-23T04:48:06.431Z,0.32
2022-10-23T04:51:06.428Z,0.55
2022-10-23T04:53:56.797Z,0.52
2022-10-23T04:56:44.830Z,0.30
2022-10-23T04:59:23.381Z,0.52
2022-10-23T05:01:54.359Z,0.68
2022-10-23T05:04:24.612Z,0.47
2022-10-23T05:07:12.520Z,0.70
2022-10-23T05:09:49.560Z,1.23
2022-10-23T05:12:25.530Z,0.88
2022-10-23T05:14:54.667Z,2.10
2022-10-23T05:17:36.448Z,3.13
2022-10-23T05:20:09.719Z,2.60
2022-10-23T05:22:41.741Z,3.33
2022-10-23T05:25:13.671Z,1.77
2022-10-23T05:27:46.605Z,1.02
2022-10-23T05:30:16.466Z,0.60
2022-10-23T05:32:44.718Z,0.30
2022-10-23T05:35:17.486Z,0.50
2022-10-23T05:37:51.201Z,0.90
2022-10-23T05:40:22.130Z,0.88
2022-10-23T05:42:53.406Z,1.00
2022-10-23T05:45:28.901Z,1.10
2022-10-23T05:48:22.724Z,0.75
2022-10-23T05:51:22.564Z,0.80
2022-10-23T05:53:58.263Z,0.90
2022-10-23T05:56:41.556Z,0.57
2022-10-23T05:59:20.432Z,1.10
2022-10-23T06:02:23.382Z,0.97
2022-10-23T06:04:57.133Z,0.98
2022-10-23T06:07:45.860Z,0.40
2022-10-23T06:10:14.175Z,0.40
2022-10-23T06:12:45.762Z,0.43
2022-10-23T06:15:16.899Z,0.88
2022-10-23T06:18:05.191Z,0.60
2022-10-23T06:20:37.797Z,0.70
2022-10-23T06:23:11.104Z,0.32
2022-10-23T06:26:08.996Z,0.50
2022-10-23T06:28:51.117Z,0.50
2022-10-23T06:31:26.741Z,0.38
2022-10-23T06:33:56.454Z,0.50
2022-10-23T06:36:24.475Z,0.40
2022-10-23T06:38:56.441Z,0.60
2022-10-23T06:41:32.351Z,0.80
2022-10-23T06:44:00.122Z,0.80
2022-10-23T06:46:42.359Z,0.75
2022-10-23T06:49:18.953Z,1.63
2022-10-23T06:51:49.115Z,0.47
2022-10-23T06:54:21.383Z,0.70
2022-10-23T06:56:56.384Z,0.63
2022-10-23T06:59:33.379Z,0.68
2022-10-23T07:02:01.384Z,0.45
2022-10-23T07:04:31.444Z,0.55
2022-10-23T07:07:00.612Z,0.82
2022-10-23T07:09:36.700Z,0.95
2022-10-23T07:12:20.248Z,0.93
2022-10-23T07:14:53.553Z,1.38
2022-10-23T07:17:22.217Z,1.48
2022-10-23T07:19:50.097Z,0.70
2022-10-23T07:22:17.880Z,0.95
2022-10-23T07:25:04.421Z,1.27
2022-10-23T07:27:39.589Z,1.70
2022-10-23T07:30:10.470Z,1.50
2022-10-23T07:32:51.932Z,3.38
2022-10-23T07:35:36.997Z,1.63
2022-10-23T07:38:10.659Z,0.85
2022-10-23T07:40:42.761Z,0.50
2022-10-23T07:43:11.934Z,1.80
2022-10-23T07:45:39.651Z,1.50
2022-10-23T07:48:16.991Z,0.80
2022-10-23T07:51:08.410Z,0.82
2022-10-23T07:53:43.252Z,1.23
2022-10-23T07:56:31.505Z,1.40
2022-10-23T07:59:34.566Z,1.25
2022-10-23T08:02:13.806Z,0.55
2022-10-23T08:04:42.691Z,2.38
2022-10-23T08:07:34.604Z,0.80
2022-10-23T08:10:02.504Z,1.40
2022-10-23T08:12:31.738Z,1.88
2022-10-23T08:14:59.472Z,1.33
2022-10-23T08:17:34.281Z,2.47
2022-10-23T08:20:17.339Z,2.60
2022-10-23T08:22:46.344Z,2.00
2022-10-23T08:25:24.927Z,5.63
2022-10-23T08:27:54.533Z,1.30
2022-10-23T08:30:22.454Z,1.38
2022-10-23T08:32:50.371Z,0.90
2022-10-23T08:35:18.545Z,0.82
2022-10-23T08:37:48.372Z,0.70
2022-10-23T08:40:18.102Z,0.50
2022-10-23T08:43:10.128Z,0.40
2022-10-23T08:45:53.950Z,0.82
2022-10-23T08:48:51.281Z,0.80
2022-10-23T08:51:54.740Z,1.15
2022-10-23T08:54:47.245Z,0.57
2022-10-23T08:57:17.334Z,1.20
2022-10-23T09:00:06.660Z,0.77
2022-10-23T09:02:42.369Z,0.50
2022-10-23T09:05:16.381Z,1.00
2022-10-23T09:08:02.581Z,0.90
2022-10-23T09:10:33.413Z,1.58
2022-10-23T09:13:40.685Z,1.92
2022-10-23T09:16:20.411Z,2.35
2022-10-23T09:18:50.136Z,2.42
2022-10-23T09:21:17.836Z,1.50
2022-10-23T09:23:50.069Z,3.75
2022-10-23T09:26:18.569Z,4.47
2022-10-23T09:28:49.010Z,4.32
2022-10-23T09:31:18.316Z,2.33
2022-10-23T09:34:01.395Z,1.60
2022-10-23T09:36:29.933Z,0.90
2022-10-23T09:38:59.879Z,0.90
2022-10-23T09:41:30.388Z,0.50
2022-10-23T09:44:16.493Z,3.03
2022-10-23T09:49:29.084Z,1.88
2022-10-23T09:52:11.840Z,1.80
2022-10-23T09:54:53.198Z,2.20
2022-10-23T09:57:26.783Z,1.10
2022-10-23T09:59:57.514Z,1.13
2022-10-23T10:02:29.192Z,0.43
2022-10-23T10:05:30.883Z,0.43
2022-10-23T10:08:24.344Z,0.80
2022-10-23T10:10:57.912Z,0.73
2022-10-23T10:13:36.582Z,0.60
2022-10-23T10:16:24.926Z,0.63
2022-10-23T10:19:22.953Z,0.60
2022-10-23T10:22:32.547Z,0.45
2022-10-23T10:25:06.349Z,0.55
2022-10-23T10:27:43.216Z,0.40
2022-10-23T10:30:14.286Z,0.60
2022-10-23T10:32:57.849Z,0.40
2022-10-23T10:35:53.610Z,0.63
2022-10-23T10:38:30.040Z,0.40
2022-10-23T10:41:21.919Z,0.40
2022-10-23T10:44:04.657Z,0.43
2022-10-23T10:46:58.454Z,0.40
2022-10-23T10:49:33.453Z,0.57
2022-10-23T10:52:34.727Z,1.20
2022-10-23T10:55:24.676Z,0.70
2022-10-23T10:58:39.670Z,0.52
2022-10-23T11:01:36.631Z,0.38
2022-10-23T11:04:34.952Z,0.50
2022-10-23T11:07:09.282Z,0.63
2022-10-23T11:09:46.534Z,0.60
2022-10-23T11:12:22.728Z,0.40
2022-10-23T11:14:55.534Z,0.55
2022-10-23T11:17:39.594Z,0.50
2022-10-23T11:20:29.003Z,0.70
2022-10-23T11:23:26.562Z,0.35
2022-10-23T11:26:21.127Z,0.73
2022-10-23T11:29:20.295Z,0.55
2022-10-23T11:32:04.595Z,0.82
2022-10-23T11:34:43.515Z,0.30
2022-10-23T11:37:17.324Z,0.30
2022-10-23T11:40:07.274Z,0.30
2022-10-23T11:42:48.157Z,0.20
2022-10-23T11:45:47.715Z,0.20
2022-10-23T11:48:15.249Z,0.30
2022-10-23T11:50:46.176Z,0.22
2022-10-23T11:53:30.797Z,0.20
2022-10-23T11:56:13.411Z,0.30
2022-10-23T11:58:43.005Z,0.30
2022-10-23T12:01:20.162Z,0.40
2022-10-23T12:04:13.558Z,0.40
2022-10-23T12:06:56.554Z,0.60
2022-10-23T12:09:52.020Z,0.50
2022-10-23T12:12:43.202Z,0.45
2022-10-23T12:15:16.643Z,0.50
2022-10-23T12:17:45.604Z,0.63
2022-10-23T12:20:39.343Z,0.55
2022-10-23T12:23:25.912Z,0.40
2022-10-23T12:26:17.629Z,0.40
2022-10-23T12:29:22.326Z,0.77
2022-10-23T12:32:04.787Z,0.43
2022-10-23T12:34:35.403Z,0.35
2022-10-23T12:37:25.218Z,0.35
2022-10-23T12:39:56.766Z,0.45
2022-10-23T12:42:27.204Z,0.25
2022-10-23T12:45:02.785Z,0.30
2022-10-23T12:47:40.598Z,0.30
2022-10-23T12:50:30.050Z,0.40
2022-10-23T12:53:03.648Z,0.35
2022-10-23T12:55:46.914Z,0.45
2022-10-23T12:58:35.171Z,0.55
2022-10-23T13:01:07.157Z,0.30
2022-10-23T13:03:37.287Z,0.40
2022-10-23T13:06:05.223Z,0.20
2022-10-23T13:08:38.929Z,0.30
2022-10-23T13:11:24.579Z,0.38
2022-10-23T13:13:53.758Z,0.60
2022-10-23T13:16:23.602Z,0.30
2022-10-23T13:18:51.389Z,0.30
2022-10-23T13:21:24.708Z,0.80
2022-10-23T13:23:52.974Z,0.32
2022-10-23T13:26:34.671Z,0.50
2022-10-23T13:29:07.456Z,0.38
2022-10-23T13:31:39.061Z,0.40
2022-10-23T13:34:16.217Z,0.38
2022-10-23T13:36:57.556Z,0.20
2022-10-23T13:39:29.819Z,0.20
2022-10-23T13:42:12.909Z,0.60
2022-10-23T13:44:41.675Z,0.90
2022-10-23T13:47:14.778Z,0.73
2022-10-23T13:49:42.420Z,0.45
2022-10-23T13:52:13.910Z,0.10
2022-10-23T13:54:43.648Z,0.38
2022-10-23T13:57:14.732Z,0.93
2022-10-23T13:59:42.870Z,1.58
2022-10-23T14:02:20.853Z,1.25
2022-10-23T14:04:49.799Z,0.68
2022-10-23T14:07:17.803Z,1.08
2022-10-23T14:09:45.452Z,0.52
2022-10-23T14:12:13.973Z,0.50
2022-10-23T14:14:41.554Z,1.30
2022-10-23T14:17:09.214Z,0.98
2022-10-23T14:22:09.838Z,0.50
2022-10-23T14:24:37.930Z,0.40
2022-10-23T14:27:05.753Z,0.20
2022-10-23T14:29:33.590Z,0.40
2022-10-23T14:32:01.270Z,0.90
2022-10-23T14:34:28.952Z,0.52
2022-10-23T14:37:08.045Z,0.40
2022-10-23T14:39:36.911Z,0.80
2022-10-23T14:42:04.617Z,0.93
2022-10-23T14:44:32.279Z,0.77
2022-10-23T14:47:00.148Z,0.60
2022-10-23T14:49:27.771Z,0.60
2022-10-23T14:51:55.382Z,0.52
2022-10-23T14:54:22.968Z,0.43
2022-10-23T14:56:50.756Z,0.82
2022-10-23T14:59:18.420Z,0.55
2022-10-23T15:01:48.427Z,0.55
2022-10-23T15:04:16.552Z,0.73
2022-10-23T15:06:46.451Z,2.85
2022-10-23T15:09:15.019Z,4.38
2022-10-23T15:11:42.805Z,4.80
2022-10-23T15:14:10.681Z,5.30
2022-10-23T15:16:41.764Z,4.57
2022-10-23T15:19:15.230Z,4.03
2022-10-23T15:21:47.144Z,1.13
2022-10-23T15:24:15.922Z,1.55
2022-10-23T15:26:44.166Z,0.90
2022-10-23T15:29:12.327Z,1.23
2022-10-23T15:31:46.043Z,2.28
2022-10-23T15:34:28.170Z,2.97
2022-10-23T15:36:56.971Z,2.05
2022-10-23T15:39:27.740Z,2.58
2022-10-23T15:41:57.171Z,2.53
2022-10-23T15:44:27.146Z,1.30
2022-10-23T15:46:57.093Z,1.85
2022-10-23T15:49:26.691Z,0.80
2022-10-23T15:51:54.288Z,1.10
2022-10-23T15:54:22.267Z,1.30
2022-10-23T15:56:52.150Z,1.30
2022-10-23T15:59:21.750Z,1.83
2022-10-23T16:01:49.861Z,1.60
2022-10-23T16:04:18.047Z,2.75
2022-10-23T16:06:46.183Z,1.70
2022-10-23T16:09:14.467Z,1.17
2022-10-23T16:11:44.233Z,1.00
2022-10-23T16:14:17.413Z,1.35
2022-10-23T16:16:45.345Z,2.25
2022-10-23T16:19:13.287Z,1.02
2022-10-23T16:21:41.995Z,2.70
2022-10-23T16:24:10.675Z,2.15
2022-10-23T16:26:39.090Z,1.92
2022-10-23T16:29:08.363Z,2.13
2022-10-23T16:31:36.544Z,3.58
2022-10-23T16:34:05.524Z,2.08
2022-10-23T16:36:35.383Z,2.65
2022-10-23T16:39:18.900Z,2.28
2022-10-23T16:42:05.399Z,2.35
2022-10-23T16:44:44.903Z,1.90
2022-10-23T16:47:12.509Z,1.88
2022-10-23T16:49:41.295Z,1.65
2022-10-23T16:52:09.904Z,1.63
2022-10-23T16:54:37.652Z,2.25
2022-10-23T16:57:05.326Z,1.77
2022-10-23T16:59:32.907Z,2.42
2022-10-23T17:02:00.573Z,3.40
2022-10-23T17:04:28.181Z,2.10
2022-10-23T17:06:55.833Z,1.98
2022-10-23T17:09:23.733Z,1.25
2022-10-23T17:11:53.123Z,1.83
2022-10-23T17:14:21.396Z,1.13
2022-10-23T17:16:51.423Z,0.80
2022-10-23T17:22:11.258Z,1.35
2022-10-23T17:24:45.147Z,1.88
2022-10-23T17:27:15.136Z,1.98
2022-10-23T17:29:42.751Z,1.77
2022-10-23T17:32:10.494Z,1.73
2022-10-23T17:34:38.322Z,1.80
2022-10-23T17:37:05.929Z,1.52
2022-10-23T17:39:33.569Z,1.73
2022-10-23T17:42:01.169Z,2.72
2022-10-23T17:44:29.288Z,2.60
2022-10-23T17:46:57.107Z,2.10
2022-10-23T17:49:25.628Z,3.45
2022-10-23T17:51:57.893Z,2.50
2022-10-23T17:54:27.413Z,8.57
2022-10-23T17:56:55.690Z,2.28
2022-10-23T17:59:24.382Z,2.25
2022-10-23T18:01:52.154Z,1.83
2022-10-23T18:04:20.936Z,2.03
2022-10-23T18:06:51.501Z,2.63
2022-10-23T18:09:20.644Z,2.58
2022-10-23T18:11:48.733Z,2.63
2022-10-23T18:14:18.922Z,2.15
2022-10-23T18:16:46.932Z,14.38
2022-10-23T18:19:17.244Z,18.05
2022-10-23T18:21:45.222Z,23.38
2022-10-23T18:24:12.834Z,7.97
2022-10-23T18:26:48.538Z,3.03
2022-10-23T18:29:17.587Z,4.82
2022-10-23T18:31:48.793Z,2.53
2022-10-23T18:34:25.174Z,3.47
2022-10-23T18:36:57.470Z,3.40
2022-10-23T18:39:25.703Z,3.95
2022-10-23T18:41:57.067Z,3.85
2022-10-23T18:44:27.375Z,4.32
2022-10-23T18:46:57.222Z,5.57
2022-10-23T18:49:24.961Z,4.30
2022-10-23T18:51:52.502Z,4.13
2022-10-23T18:54:21.501Z,4.55
2022-10-23T18:56:49.633Z,3.42
2022-10-23T18:59:19.561Z,2.83
2022-10-23T19:01:49.228Z,3.00
2022-10-23T19:04:18.543Z,3.25
2022-10-23T19:06:47.340Z,3.75
2022-10-23T19:09:15.543Z,3.08
2022-10-23T19:11:44.124Z,1.83
2022-10-23T19:14:11.936Z,2.95
2022-10-23T19:17:05.114Z,2.75
2022-10-23T19:19:55.578Z,2.75
2022-10-23T19:22:23.927Z,3.05
2022-10-23T19:24:55.429Z,2.55
2022-10-23T19:27:24.463Z,4.50
2022-10-23T19:29:53.528Z,4.63
2022-10-23T19:32:22.506Z,5.05
2022-10-23T19:34:50.113Z,4.65
2022-10-23T19:37:20.241Z,3.95
2022-10-23T19:39:55.358Z,5.88
2022-10-23T19:42:25.667Z,5.25
2022-10-23T19:44:54.296Z,5.22
2022-10-23T19:47:27.710Z,4.15
2022-10-23T19:49:55.313Z,5.32
2022-10-23T19:52:24.958Z,6.05
2022-10-23T19:54:52.609Z,6.25
2022-10-23T19:57:22.533Z,6.72
2022-10-23T19:59:52.331Z,4.82
2022-10-23T20:02:25.684Z,4.53
2022-10-23T20:04:54.007Z,4.05
2022-10-23T20:07:21.930Z,5.32
2022-10-23T20:09:49.598Z,4.45
2022-10-23T20:12:17.313Z,3.17
2022-10-23T20:14:45.127Z,3.28
2022-10-23T20:17:12.681Z,4.35
2022-10-23T20:19:40.302Z,3.47
2022-10-23T20:22:08.748Z,2.80
2022-10-23T20:24:36.798Z,3.03
2022-10-23T20:27:04.443Z,2.83
2022-10-23T20:29:32.412Z,1.85
2022-10-23T20:32:02.985Z,2.92
2022-10-23T20:34:30.661Z,1.90
2022-10-23T20:36:58.296Z,1.77
2022-10-23T20:39:26.776Z,1.33
2022-10-23T20:41:55.439Z,2.00
2022-10-23T20:44:24.005Z,1.73
2022-10-23T20:46:55.192Z,1.85
2022-10-23T20:49:23.467Z,7.35
2022-10-23T20:51:56.062Z,2.13
2022-10-23T20:54:25.971Z,2.65
2022-10-23T20:56:53.847Z,1.50
2022-10-23T20:59:21.562Z,1.17
2022-10-23T21:01:53.178Z,1.08
2022-10-23T21:04:25.227Z,1.10
2022-10-23T21:07:11.838Z,1.30
2022-10-23T21:09:55.707Z,1.38
2022-10-23T21:12:28.029Z,1.10
2022-10-23T21:14:55.696Z,0.80
2022-10-23T21:17:23.265Z,1.40
2022-10-23T21:19:53.080Z,1.80
2022-10-23T21:22:20.649Z,2.30
2022-10-23T21:24:49.681Z,1.33
2022-10-23T21:27:17.317Z,0.77
2022-10-23T21:29:44.992Z,0.77
2022-10-23T21:32:12.579Z,1.17
2022-10-23T21:34:40.174Z,1.25
2022-10-23T21:37:13.822Z,1.00
2022-10-23T21:39:43.223Z,0.75
2022-10-23T21:42:14.075Z,0.95
2022-10-23T21:44:41.793Z,0.90
2022-10-23T21:47:09.657Z,0.85
2022-10-23T21:49:37.357Z,1.30
2022-10-23T21:52:05.384Z,0.68
2022-10-23T21:54:33.399Z,0.95
2022-10-23T21:57:03.175Z,1.45
2022-10-23T21:59:33.156Z,1.40
2022-10-23T22:02:02.654Z,1.05
2022-10-23T22:04:30.305Z,0.43
2022-10-23T22:06:57.943Z,0.65
2022-10-23T22:09:25.509Z,0.75
2022-10-23T22:11:53.743Z,1.02
2022-10-23T22:14:21.997Z,1.05
2022-10-23T22:16:49.799Z,0.70
2022-10-23T22:19:18.265Z,1.00
2022-10-23T22:21:47.680Z,1.27
2022-10-23T22:24:17.631Z,1.60
2022-10-23T22:26:48.453Z,1.02
2022-10-23T22:29:22.396Z,1.15
2022-10-23T22:31:50.557Z,0.88
2022-10-23T22:34:48.289Z,1.95
2022-10-23T22:37:15.950Z,4.03
2022-10-23T22:39:43.791Z,2.90
2022-10-23T22:42:11.500Z,3.92
2022-10-23T22:44:39.061Z,3.33
2022-10-23T22:47:06.671Z,1.50
2022-10-23T22:49:34.223Z,2.17
2022-10-23T22:52:01.830Z,1.73
2022-10-23T22:54:31.348Z,1.40
2022-10-23T22:56:59.075Z,1.10
2022-10-23T23:00:00.088Z,1.67
2022-10-23T23:10:44.328Z,0.82
2022-10-23T23:13:36.146Z,0.75
2022-10-23T23:16:04.500Z,0.82
2022-10-23T23:18:32.589Z,0.70
2022-10-23T23:21:06.456Z,1.17
2022-10-23T23:23:35.054Z,1.08
2022-10-23T23:26:05.930Z,0.98
2022-10-23T23:28:33.691Z,0.88
2022-10-23T23:31:13.641Z,1.10
2022-10-23T23:33:41.258Z,1.15
2022-10-23T23:36:11.055Z,0.85
2022-10-23T23:38:39.481Z,1.33
2022-10-23T23:41:11.123Z,0.63
2022-10-23T23:43:38.709Z,1.27
2022-10-23T23:46:06.417Z,1.40
2022-10-23T23:48:34.211Z,0.90
2022-10-23T23:51:01.911Z,0.90
2022-10-23T23:53:29.943Z,1.20
2022-10-23T23:55:58.261Z,0.95
2022-10-23T23:58:25.806Z,0.93
